createdAt,value
2022-08-30T00:00:00.843Z,19966.28
2022-08-30T00:02:30.603Z,19950.00
2022-08-30T00:05:01.499Z,20013.00
2022-08-30T00:07:30.782Z,19980.50
2022-08-30T00:09:58.988Z,19945.94
2022-08-30T00:12:27.846Z,19956.09
2022-08-30T00:14:56.538Z,19923.59
2022-08-30T00:17:24.796Z,19915.47
2022-08-30T00:19:55.867Z,19925.63
2022-08-30T00:22:24.156Z,19887.00
2022-08-30T00:24:52.480Z,19905.28
2022-08-30T00:27:21.051Z,19856.53
2022-08-30T00:29:49.257Z,19891.06
2022-08-30T00:32:18.075Z,19905.28
2022-08-30T00:34:46.275Z,19915.47
2022-08-30T00:37:16.720Z,20000.81
2022-08-30T00:39:44.927Z,20015.03
2022-08-30T00:42:14.687Z,20002.84
2022-08-30T00:44:44.215Z,19954.06
2022-08-30T00:47:13.777Z,19887.00
2022-08-30T00:49:49.390Z,19929.69
2022-08-30T00:52:20.353Z,19909.34
2022-08-30T00:54:51.977Z,19905.28
2022-08-30T00:57:20.909Z,19793.50
2022-08-30T00:59:51.626Z,19781.31
2022-08-30T01:02:24.206Z,19809.78
2022-08-30T01:04:55.448Z,19817.91
2022-08-30T01:07:25.339Z,19769.13
2022-08-30T01:09:53.665Z,19710.19
2022-08-30T01:12:23.401Z,19720.34
2022-08-30T01:14:51.792Z,19734.56
2022-08-30T01:17:22.032Z,19706.13
2022-08-30T01:19:58.260Z,19752.88
2022-08-30T01:22:37.271Z,19779.28
2022-08-30T01:25:10.573Z,19856.53
2022-08-30T01:27:43.885Z,19761.00
2022-08-30T01:30:14.218Z,19761.00
2022-08-30T01:32:48.471Z,19726.44
2022-08-30T01:35:20.413Z,19716.28
2022-08-30T01:37:49.426Z,19702.06
2022-08-30T01:40:22.297Z,19695.97
2022-08-30T01:42:51.127Z,19695.97
2022-08-30T01:45:19.681Z,19716.28
2022-08-30T01:47:47.932Z,19716.28
2022-08-30T01:50:16.736Z,19693.94
2022-08-30T01:52:45.150Z,19624.84
2022-08-30T01:55:13.488Z,19665.47
2022-08-30T01:57:43.246Z,19675.63
2022-08-30T02:00:12.936Z,19667.50
2022-08-30T02:02:41.535Z,19643.13
2022-08-30T02:05:10.618Z,19590.28
2022-08-30T02:07:38.882Z,19563.88
2022-08-30T02:10:08.446Z,19596.38
2022-08-30T02:12:36.811Z,19600.44
2022-08-30T02:15:08.899Z,19551.69
2022-08-30T02:17:38.011Z,19574.03
2022-08-30T02:20:08.047Z,19561.84
2022-08-30T02:22:36.480Z,19545.56
2022-08-30T02:25:06.414Z,19578.09
2022-08-30T02:27:39.593Z,19533.38
2022-08-30T02:30:14.419Z,19500.88
2022-08-30T02:32:42.630Z,19494.78
2022-08-30T02:35:11.368Z,19529.31
2022-08-30T02:37:39.574Z,19531.34
2022-08-30T02:40:10.181Z,19506.97
2022-08-30T02:42:38.534Z,19523.22
2022-08-30T02:45:08.059Z,19498.84
2022-08-30T02:47:38.177Z,19541.50
2022-08-30T02:50:09.951Z,19488.69
2022-08-30T02:52:38.434Z,19511.03
2022-08-30T02:55:08.852Z,19472.41
2022-08-30T02:57:37.949Z,19423.66
2022-08-30T03:00:09.374Z,19443.97
2022-08-30T03:02:38.988Z,19427.72
2022-08-30T03:05:07.751Z,19431.78
2022-08-30T03:07:36.051Z,19443.97
2022-08-30T03:10:04.833Z,19458.19
2022-08-30T03:12:33.419Z,19387.06
2022-08-30T03:15:03.109Z,19364.72
2022-08-30T03:17:31.382Z,19376.91
2022-08-30T03:20:02.233Z,19376.91
2022-08-30T03:22:30.834Z,19370.81
2022-08-30T03:25:00.118Z,19391.13
2022-08-30T03:27:30.308Z,19322.03
2022-08-30T03:29:59.031Z,19370.81
2022-08-30T03:32:27.403Z,19328.13
2022-08-30T03:34:55.614Z,19281.41
2022-08-30T03:37:27.506Z,19330.16
2022-08-30T03:39:55.881Z,19338.28
2022-08-30T03:42:25.220Z,19344.41
2022-08-30T03:44:53.580Z,19362.69
2022-08-30T03:47:22.304Z,19352.53
2022-08-30T03:49:50.757Z,19370.81
2022-08-30T03:52:18.973Z,19397.22
2022-08-30T03:54:48.738Z,19322.03
2022-08-30T03:57:19.950Z,19346.44
2022-08-30T03:59:48.756Z,19320.00
2022-08-30T04:02:16.973Z,19297.66
2022-08-30T04:04:45.252Z,19313.91
2022-08-30T04:07:13.473Z,19305.78
2022-08-30T04:09:41.857Z,19232.63
2022-08-30T04:12:11.614Z,19271.25
2022-08-30T04:14:39.944Z,19269.22
2022-08-30T04:17:10.258Z,19242.78
2022-08-30T04:19:38.456Z,19250.91
2022-08-30T04:22:06.938Z,19267.16
2022-08-30T04:24:35.208Z,19246.84
2022-08-30T04:27:03.335Z,19232.63
2022-08-30T04:29:32.868Z,19224.50
2022-08-30T04:32:01.245Z,19263.09
2022-08-30T04:34:29.622Z,19259.03
2022-08-30T04:36:57.819Z,19214.34
2022-08-30T04:39:27.566Z,19218.41
2022-08-30T04:41:56.010Z,19206.22
2022-08-30T04:44:27.362Z,19212.31
2022-08-30T04:46:56.963Z,19198.09
2022-08-30T04:49:25.229Z,19230.59
2022-08-30T04:51:53.457Z,19204.19
2022-08-30T04:54:21.693Z,19179.78
2022-08-30T04:56:49.983Z,19183.84
2022-08-30T04:59:18.179Z,19183.84
2022-08-30T05:01:46.405Z,19214.34
2022-08-30T05:04:16.800Z,19204.19
2022-08-30T05:06:45.356Z,19212.31
2022-08-30T05:09:14.031Z,19189.97
2022-08-30T05:11:43.395Z,19204.19
2022-08-30T05:14:12.081Z,19234.66
2022-08-30T05:16:41.553Z,19220.44
2022-08-30T05:19:10.066Z,19265.13
2022-08-30T05:21:41.502Z,19279.38
2022-08-30T05:24:10.443Z,19283.44
2022-08-30T05:26:40.302Z,19275.31
2022-08-30T05:29:08.659Z,19299.69
2022-08-30T05:31:37.946Z,19370.81
2022-08-30T05:34:06.817Z,19383.00
2022-08-30T05:36:37.645Z,19370.81
2022-08-30T05:39:09.560Z,19443.97
2022-08-30T05:41:39.675Z,19478.50
2022-08-30T05:44:10.191Z,19555.75
2022-08-30T08:41:37.883Z,20763.06
2022-08-30T08:44:16.584Z,20708.19
2022-08-30T08:46:58.421Z,20791.53
2022-08-30T08:49:27.016Z,20817.94
2022-08-30T08:52:14.322Z,20866.75
2022-08-30T08:54:49.992Z,20880.97
2022-08-30T08:57:24.460Z,20976.53
2022-08-30T08:59:54.458Z,21011.09
2022-08-30T09:02:28.451Z,21088.34
2022-08-30T09:05:01.559Z,21031.41
2022-08-30T09:07:37.812Z,21043.59
2022-08-30T09:10:08.219Z,21100.53
2022-08-30T09:12:38.140Z,21061.91
2022-08-30T09:15:16.978Z,21139.16
2022-08-30T09:17:57.148Z,21151.34
2022-08-30T09:20:30.999Z,21200.16
2022-08-30T09:23:00.280Z,21192.03
2022-08-30T09:25:32.469Z,21250.97
2022-08-30T09:28:14.518Z,21234.72
2022-08-30T09:31:02.683Z,21314.00
2022-08-30T09:33:32.800Z,21352.63
2022-08-30T09:36:22.863Z,21446.16
2022-08-30T09:39:01.948Z,21458.38
2022-08-30T09:41:40.058Z,21549.84
2022-08-30T09:44:16.763Z,21480.72
2022-08-30T09:46:49.724Z,21395.34
2022-08-30T09:49:36.939Z,21356.69
2022-08-30T09:52:35.817Z,21324.19
2022-08-30T09:55:22.157Z,21309.94
2022-08-30T09:58:07.039Z,21232.69
2022-08-30T10:00:45.407Z,21271.31
2022-08-30T10:03:36.166Z,21271.31
2022-08-30T10:06:24.606Z,21281.47
2022-08-30T10:09:13.530Z,21377.03
2022-08-30T10:11:50.658Z,21421.75
2022-08-30T10:14:57.173Z,21427.88
2022-08-30T10:17:49.261Z,21509.19
2022-08-30T10:20:27.652Z,21602.72
2022-08-30T10:23:06.216Z,21606.78
2022-08-30T10:25:43.949Z,21584.44
2022-08-30T10:28:21.505Z,21614.94
2022-08-30T10:31:00.232Z,21724.72
2022-08-30T10:33:39.644Z,21738.97
2022-08-30T10:36:14.694Z,21677.97
2022-08-30T10:38:48.866Z,21694.22
2022-08-30T10:41:35.283Z,21781.66
2022-08-30T10:44:16.372Z,21706.44
2022-08-30T10:47:02.756Z,21749.13
2022-08-30T10:49:40.757Z,21741.00
2022-08-30T10:52:25.651Z,21802.00
2022-08-30T10:55:00.242Z,21793.84
2022-08-30T10:57:28.744Z,21836.56
2022-08-30T11:00:06.062Z,21865.03
2022-08-30T11:03:25.126Z,21897.56
2022-08-30T11:06:19.434Z,21928.06
2022-08-30T11:09:32.396Z,21995.16
2022-08-30T11:12:29.276Z,21993.13
2022-08-30T11:14:58.547Z,21944.34
2022-08-30T11:17:47.532Z,21974.84
2022-08-30T11:20:36.287Z,22025.66
2022-08-30T11:23:33.534Z,22206.66
2022-08-30T11:26:06.489Z,22241.22
2022-08-30T11:29:06.469Z,22153.78
2022-08-30T11:31:43.087Z,22021.59
2022-08-30T11:34:13.224Z,21964.66
2022-08-30T11:37:10.325Z,22023.63
2022-08-30T11:39:57.198Z,21950.44
2022-08-30T11:42:42.509Z,21997.19
2022-08-30T11:45:47.869Z,21928.06
2022-08-30T11:48:53.717Z,21960.59
2022-08-30T11:52:26.314Z,21897.56
2022-08-30T11:55:08.950Z,21887.41
2022-08-30T11:57:50.423Z,21844.69
2022-08-30T12:00:35.144Z,21810.13
2022-08-30T12:03:06.950Z,21771.50
2022-08-30T12:06:00.747Z,21875.19
2022-08-30T12:08:59.541Z,21950.44
2022-08-30T12:11:59.717Z,22011.44
2022-08-30T12:14:52.060Z,21913.84
2022-08-30T12:17:44.486Z,21850.78
2022-08-30T12:20:23.043Z,21828.44
2022-08-30T12:22:52.572Z,21686.09
2022-08-30T12:25:28.967Z,21675.94
2022-08-30T12:28:16.073Z,21645.44
2022-08-30T12:30:46.449Z,21667.78
2022-08-30T12:33:29.079Z,21779.63
2022-08-30T12:35:59.406Z,21932.13
2022-08-30T12:38:29.726Z,21895.53
2022-08-30T12:41:02.639Z,21997.19
2022-08-30T12:43:41.522Z,21962.63
2022-08-30T12:46:15.982Z,21944.34
2022-08-30T12:48:46.379Z,21956.53
2022-08-30T12:51:35.142Z,21936.19
2022-08-30T12:54:19.626Z,21944.34
2022-08-30T12:57:13.921Z,21956.53
2022-08-30T12:59:59.226Z,21885.38
2022-08-30T13:02:43.806Z,21826.41
2022-08-30T13:05:48.615Z,21848.75
2022-08-30T13:08:26.247Z,21838.59
2022-08-30T13:11:01.534Z,21846.72
2022-08-30T13:13:39.678Z,21830.47
2022-08-30T13:16:22.453Z,21822.31
2022-08-30T13:18:53.265Z,21795.88
2022-08-30T13:21:30.610Z,21773.53
2022-08-30T13:24:01.950Z,21741.00
2022-08-30T13:26:34.843Z,21755.22
2022-08-30T13:29:08.728Z,21777.59
2022-08-30T13:31:40.040Z,21787.75
2022-08-30T13:34:08.900Z,21745.06
2022-08-30T13:36:46.540Z,21802.00
2022-08-30T13:39:15.072Z,21826.41
2022-08-30T13:41:44.219Z,21840.63
2022-08-30T13:44:13.575Z,21838.59
2022-08-30T13:46:53.991Z,21797.94
2022-08-30T13:49:44.641Z,21850.78
2022-08-30T13:52:22.040Z,21915.88
2022-08-30T13:54:51.598Z,21928.06
2022-08-30T14:00:17.519Z,21903.66
2022-08-30T14:02:54.830Z,21865.03
2022-08-30T14:11:06.715Z,21899.59
2022-08-30T14:13:35.452Z,21919.94
2022-08-30T14:19:00.393Z,21883.31
2022-08-30T14:21:29.121Z,21982.97
2022-08-30T14:23:59.646Z,22080.56
2022-08-30T14:26:32.973Z,22170.06
2022-08-30T14:29:02.358Z,22135.47
2022-08-30T14:31:32.761Z,22186.31
2022-08-30T14:34:05.086Z,22229.03
2022-08-30T14:36:35.659Z,22180.22
2022-08-30T14:39:08.695Z,22161.91
2022-08-30T14:41:43.705Z,22121.25
2022-08-30T14:44:13.005Z,22046.00
2022-08-30T14:46:41.411Z,21968.72
2022-08-30T14:49:12.571Z,21887.41
2022-08-30T14:51:41.676Z,21889.44
2022-08-30T14:54:10.903Z,21820.28
2022-08-30T14:56:40.825Z,21747.09
2022-08-30T14:59:09.494Z,21734.88
2022-08-30T15:01:41.769Z,21736.94
2022-08-30T15:04:13.236Z,21722.69
2022-08-30T15:06:45.153Z,21710.50
2022-08-30T15:09:16.526Z,21702.34
2022-08-30T15:11:44.740Z,21680.00
2022-08-30T15:14:16.370Z,21706.44
2022-08-30T15:16:45.757Z,21673.88
2022-08-30T15:19:15.630Z,21649.50
2022-08-30T15:21:47.556Z,21700.31
2022-08-30T15:24:19.963Z,21663.72
2022-08-30T15:26:59.610Z,21661.69
2022-08-30T15:29:30.520Z,21680.00
2022-08-30T15:32:01.422Z,21734.88
2022-08-30T15:34:32.568Z,21708.47
2022-08-30T15:37:01.942Z,21651.53
2022-08-30T15:39:31.286Z,21702.34
2022-08-30T15:42:01.312Z,21738.97
2022-08-30T15:44:30.683Z,21718.63
2022-08-30T15:46:59.637Z,21736.94
2022-08-30T15:49:27.715Z,21712.53
2022-08-30T15:52:05.198Z,21741.00
2022-08-30T15:54:36.184Z,21706.44
2022-08-30T15:57:05.795Z,21708.47
2022-08-30T15:59:34.225Z,21659.66
2022-08-30T16:02:02.382Z,21639.31
2022-08-30T16:04:31.671Z,21598.66
2022-08-30T16:07:01.399Z,21631.19
2022-08-30T16:09:30.204Z,21614.94
2022-08-30T16:12:01.352Z,21610.84
2022-08-30T16:14:29.383Z,21631.19
2022-08-30T16:16:57.873Z,21641.34
2022-08-30T16:19:26.973Z,21647.47
2022-08-30T16:21:55.251Z,21598.66
2022-08-30T16:24:25.843Z,21584.44
2022-08-30T16:26:54.526Z,21619.00
2022-08-30T16:29:22.655Z,21606.78
2022-08-30T16:31:51.187Z,21627.13
2022-08-30T16:34:21.016Z,21578.31
2022-08-30T16:36:49.706Z,21570.19
2022-08-30T16:39:19.255Z,21574.25
2022-08-30T16:41:49.978Z,21558.00
2022-08-30T16:44:18.584Z,21539.69
2022-08-30T16:46:53.590Z,21503.09
2022-08-30T16:49:23.201Z,21545.78
2022-08-30T16:51:53.940Z,21497.00
2022-08-30T16:54:23.322Z,21446.16
2022-08-30T16:56:52.933Z,21407.53
2022-08-30T16:59:21.038Z,21431.94
2022-08-30T17:01:50.158Z,21393.31
2022-08-30T17:04:19.755Z,21419.72
2022-08-30T17:09:38.043Z,21362.81
2022-08-30T17:12:08.205Z,21362.81
2022-08-30T17:14:36.805Z,21391.28
2022-08-30T17:17:05.225Z,21342.47
2022-08-30T17:19:37.935Z,21370.94
2022-08-30T17:22:10.116Z,21301.81
2022-08-30T17:24:39.737Z,21305.88
2022-08-30T17:27:09.870Z,21289.59
2022-08-30T17:29:37.904Z,21299.78
2022-08-30T17:32:07.059Z,21283.50
2022-08-30T17:34:35.109Z,21318.06
2022-08-30T17:37:03.432Z,21248.94
2022-08-30T17:39:32.155Z,21253.00
2022-08-30T17:42:00.834Z,21265.22
2022-08-30T17:44:36.308Z,21273.34
2022-08-30T17:47:05.293Z,21250.97
2022-08-30T17:49:34.280Z,21218.44
2022-08-30T17:52:03.931Z,21202.19
2022-08-30T17:54:35.355Z,21177.78
2022-08-30T17:57:10.667Z,21147.28
2022-08-30T17:59:41.178Z,21141.19
2022-08-30T18:02:11.311Z,21114.75
2022-08-30T18:04:39.689Z,21098.50
2022-08-30T18:07:12.278Z,21090.38
2022-08-30T18:09:41.210Z,21096.47
2022-08-30T18:12:09.940Z,21059.88
2022-08-30T18:14:39.328Z,21078.16
2022-08-30T18:17:09.336Z,21047.69
2022-08-30T18:19:45.881Z,20992.78
2022-08-30T18:22:15.768Z,20974.50
2022-08-30T18:24:45.208Z,21045.63
2022-08-30T18:27:13.423Z,20990.75
2022-08-30T18:29:41.824Z,20984.66
2022-08-30T18:32:12.488Z,20962.28
2022-08-30T18:34:42.681Z,20980.59
2022-08-30T18:37:12.550Z,20958.22
2022-08-30T18:39:41.560Z,20948.06
2022-08-30T18:42:10.385Z,20956.19
2022-08-30T18:44:39.841Z,20935.88
2022-08-30T18:47:09.412Z,20905.38
2022-08-30T18:49:39.217Z,20874.88
2022-08-30T18:52:10.826Z,20944.00
2022-08-30T18:54:41.879Z,20868.78
2022-08-30T18:57:11.976Z,20866.75
2022-08-30T18:59:41.907Z,20870.81
2022-08-30T19:02:15.015Z,20834.22
2022-08-30T19:04:45.822Z,20793.56
2022-08-30T19:07:17.080Z,20795.59
2022-08-30T19:09:46.805Z,20759.00
2022-08-30T19:12:16.063Z,20795.59
2022-08-30T19:14:44.371Z,20787.47
2022-08-30T19:17:13.206Z,20754.94
2022-08-30T19:19:48.789Z,20777.28
2022-08-30T19:22:20.329Z,20756.97
2022-08-30T19:24:49.947Z,20716.31
2022-08-30T19:27:21.614Z,20752.91
2022-08-30T19:30:08.087Z,20761.03
2022-08-30T19:32:37.091Z,20732.56
2022-08-30T19:35:05.945Z,20732.56
2022-08-30T19:37:35.978Z,20748.84
2022-08-30T19:40:07.531Z,20702.09
2022-08-30T19:42:40.562Z,20700.03
2022-08-30T19:45:18.521Z,20689.88
2022-08-30T19:47:47.535Z,20695.97
2022-08-30T19:50:16.744Z,20691.91
2022-08-30T19:52:53.329Z,20693.94
2022-08-30T19:55:30.142Z,20720.38
2022-08-30T19:58:00.098Z,20691.91
2022-08-30T20:00:31.517Z,20693.94
2022-08-30T20:03:01.773Z,20679.72
2022-08-30T20:05:31.748Z,20718.34
2022-08-30T20:08:01.861Z,20675.66
2022-08-30T20:10:30.321Z,20683.78
2022-08-30T20:12:59.328Z,20596.38
2022-08-30T20:15:27.746Z,20606.53
2022-08-30T20:18:05.538Z,20630.94
2022-08-30T20:20:36.461Z,20614.66
2022-08-30T20:23:06.867Z,20606.53
2022-08-30T20:24:23.938Z,21401.44
2022-08-30T20:25:36.057Z,20582.16
2022-08-30T20:28:04.629Z,20610.59
2022-08-30T20:30:33.408Z,20529.28
2022-08-30T20:33:08.424Z,20533.34
2022-08-30T20:35:38.398Z,20569.94
2022-08-30T20:38:07.853Z,20582.16
2022-08-30T20:40:39.073Z,20574.00
2022-08-30T20:43:08.049Z,20596.38
2022-08-30T20:45:36.143Z,20598.41
2022-08-30T20:48:05.726Z,20500.84
2022-08-30T20:50:33.866Z,20504.91
2022-08-30T20:53:02.071Z,20543.53
2022-08-30T20:55:31.623Z,20488.63
2022-08-30T20:57:59.820Z,20580.13
2022-08-30T21:00:28.552Z,20486.59
2022-08-30T21:02:57.246Z,20502.88
2022-08-30T21:05:25.630Z,20474.41
2022-08-30T21:07:53.885Z,20490.66
2022-08-30T21:10:23.621Z,20482.53
2022-08-30T21:12:53.384Z,20462.22
2022-08-30T21:15:41.812Z,20450.03
2022-08-30T21:18:09.856Z,20484.56
2022-08-30T21:20:37.976Z,20460.19
2022-08-30T21:23:06.037Z,20445.94
2022-08-30T21:25:34.554Z,20437.81
2022-08-30T21:28:04.347Z,20433.75
2022-08-30T21:30:32.480Z,20407.34
2022-08-30T21:33:00.781Z,20409.38
2022-08-30T21:35:46.767Z,20411.41
2022-08-30T21:38:15.188Z,20370.75
2022-08-30T21:40:44.081Z,20407.34
2022-08-30T21:43:13.956Z,20401.22
2022-08-30T21:45:43.871Z,20380.91
2022-08-30T21:48:14.353Z,20346.34
2022-08-30T21:50:45.660Z,20362.63
2022-08-30T21:53:15.582Z,20378.88
2022-08-30T21:55:45.823Z,20344.31
2022-08-30T21:58:17.687Z,20348.38
2022-08-30T22:00:45.816Z,20344.31
2022-08-30T22:03:14.007Z,20285.38
2022-08-30T22:05:42.615Z,20301.63
2022-08-30T22:08:10.736Z,20295.53
2022-08-30T22:10:38.835Z,20273.19
2022-08-30T22:13:10.032Z,20267.09
2022-08-30T22:15:40.252Z,20281.31
2022-08-30T22:18:08.472Z,20258.94
2022-08-30T22:20:36.604Z,20232.53
2022-08-30T22:23:05.088Z,20240.66
2022-08-30T22:25:33.261Z,20228.47
2022-08-30T22:28:01.372Z,20216.25
2022-08-30T22:30:32.435Z,20157.31
2022-08-30T22:33:02.489Z,20167.47
2022-08-30T22:35:30.648Z,20161.38
2022-08-30T22:37:59.038Z,20197.97
2022-08-30T22:40:27.298Z,20210.16
2022-08-30T22:42:55.592Z,20132.94
2022-08-30T22:45:23.700Z,20159.34
2022-08-30T22:47:51.788Z,20141.06
2022-08-30T22:50:21.665Z,20106.50
2022-08-30T22:52:50.709Z,20098.38
2022-08-30T22:55:19.078Z,20116.66
2022-08-30T22:57:47.252Z,20096.34
2022-08-30T23:00:20.161Z,20120.75
2022-08-30T23:02:51.403Z,20047.56
2022-08-30T23:05:23.975Z,20069.94
2022-08-30T23:07:52.359Z,20029.28
2022-08-30T23:10:21.842Z,20015.03
2022-08-30T23:12:49.938Z,20004.88
2022-08-30T23:15:18.083Z,20004.88
2022-08-30T23:17:46.211Z,20004.88
2022-08-30T23:20:14.573Z,19976.44
2022-08-30T23:22:44.346Z,20000.81
2022-08-30T23:25:32.095Z,19933.75
2022-08-30T23:28:27.110Z,19943.91
2022-08-30T23:31:13.445Z,19915.47
2022-08-30T23:33:59.204Z,19899.19
2022-08-30T23:36:44.720Z,19878.88
2022-08-30T23:39:31.596Z,19891.06
2022-08-30T23:42:17.089Z,19903.25
2022-08-30T23:45:02.870Z,19858.56
2022-08-30T23:47:48.687Z,19874.81
2022-08-30T23:50:34.308Z,19899.19
2022-08-30T23:53:20.294Z,19878.88
2022-08-30T23:56:07.811Z,19864.66
2022-08-30T23:58:54.675Z,19889.03
